Date,TemperatureHighF,TemperatureAvgF,TemperatureLowF,DewpointHighF,DewpointAvgF,DewpointLowF,HumidityHigh,HumidityAvg,HumidityLow,PressureMaxIn,PressureMinIn,WindSpeedMaxMPH,WindSpeedAvgMPH,GustSpeedMaxMPH,PrecipitationSumIn
2013-2-1,-200,0,200,-100,-100,-100,0,0,100,0.00,40.00,0,-999,0,0.00
2013-2-2,-200,0,200,-100,-100,-100,0,0,100,0.00,40.00,0,-999,0,0.00
2013-2-3,-200,0,200,-100,-100,-100,0,0,100,0.00,40.00,0,-999,0,0.00
2013-2-4,28,16,14,13,-27,-100,74,33,34,29.77,0.00,21,-296,0,0.00
2013-2-5,25,16,8,9,1,-5,73,53,28,29.94,29.78,6,1,0,0.00
2013-2-6,36,24,16,24,12,-5,78,62,35,30.19,29.84,12,4,0,0.00
2013-2-7,20,14,9,-2,-8,-12,55,39,25,30.49,30.20,13,3,0,0.00
2013-2-8,17,13,9,15,6,-8,91,77,41,30.49,29.80,17,5,0,0.00
2013-2-9,19,14,10,13,10,8,90,84,67,30.01,29.57,28,14,0,0.00
2013-2-10,36,22,9,10,5,-1,71,51,27,30.26,30.01,12,3,0,0.00
2013-2-11,39,24,10,38,22,6,97,90,68,30.26,29.48,5,0,0,0.33
2013-2-12,42,36,31,33,31,28,97,82,62,29.68,29.44,17,5,0,0.04
2013-2-13,42,35,28,29,26,23,86,71,51,29.72,29.65,8,2,0,0.00
2013-2-14,40,32,25,25,22,20,85,67,46,29.91,29.63,11,2,0,0.00
2013-2-15,44,33,23,37,30,21,95,86,72,29.91,29.82,19,2,0,0.00
2013-2-16,34,32,27,32,29,15,96,91,61,29.85,29.67,14,4,0,0.01
2013-2-17,27,22,18,20,13,5,92,71,55,29.67,29.08,23,12,0,0.00
2013-2-18,29,21,14,11,5,0,60,51,39,29.94,29.37,26,14,0,0.00
2013-2-19,43,30,16,42,17,0,97,60,31,30.01,29.50,7,1,0,0.55
2013-2-20,43,43,42,42,42,41,96,96,96,29.48,29.45,4,2,0,0.04